Pagrindinis puslapis
METAR-TAF:

METAR-TAF

Oro uostai :

East Jakarta, Indonezija

platuma: 06-15-59S, ilguma: 106-53-28E, Aukštis: 25 m

Dabartinis oras

Ataskaita buvo paskelbta 5 valandos ir 36 minutes, ne 13:00 UTC
Vėjas 5 kt iš Rytų
Temperatūra 29°C
Drėgmė 70%
Slėgis 1009 hPa
Matomumas: 6000 m

METAR: WIHH 301300Z 10005KT 6000 NSC 29/23 Q1009 NOSIG

Laikas: 01:36 (18:36 UTC)

Prognozė

Ataskaita buvo paskelbta 1 valandą ir 36 minutes, ne 17:00 UTC
Prognozė galioja nuo 30 metu 18 UTC su 01 metu 18 UTC
Vėjas 4 kt iš Pietų/Pietryčių
Matomumas: 5000 m
Mažai debesys ne aukštis 2000 ft
migla
Tapsmas
nuo 01 metu 02 UTC su 01 metu 04 UTC
Vėjas 10 kt iš Rytų
Matomumas: 6000 m
Išsisklaidę debesys ne aukštis 2000 ft

TAF: WIHH 301700Z 3018/0118 15004KT 5000 HZ FEW020 BECMG 0102/0104 09010KT 6000 SCT020

Orai ataskaitas ir orų prognozės (METAR, TAF).

turimą stotys yra geltonos ir raudonos taškus žemėlapyje.

Perkelti pele per norėdami pamatyti stoties vardą.

Tada spustelėkite, norėdami matyti oro stebėjimo ir prognozės.

Norėdami pakeisti žemėlapį: spustelėkite ant žalios mygtukų su juodo kryžiaus žemyn,; žalią mygtuką su brūkšneliu, jei norite nutolinti; arba žalių rodyklių gretimoms žemėlapius.


METAR-TAF: